Terminal Aerodrome Forecast
Issued by NWS

Home | Current Version | Previous Version | Text Only | Print | Product List | Glossary On
Versions: 1 2 3 4 5 6 7 8 9 10 11 12 13 14 15
000
FTUS45 KABQ 301141
TAFTCC
TAF
KTCC 301141Z 3012/3112 VRB04KT P6SM SKC
     FM301700 22008KT P6SM FEW100
     FM302200 19010KT P6SM SCT100
     FM310100 16010KT P6SM BKN090
     FM310600 21010KT P6SM VCSH SCT070 SCT150=

USA.gov is the U.S. government's official web portal to all federal, state and local government web resources and services.